createdAt,value
2022-08-31T00:00:23.575Z,2.77
2022-08-31T00:03:09.223Z,2.73
2022-08-31T00:05:38.891Z,2.43
2022-08-31T00:08:07.104Z,2.30
2022-08-31T00:10:37.066Z,2.23
2022-08-31T00:13:06.881Z,2.50
2022-08-31T00:15:36.891Z,2.50
2022-08-31T00:18:06.045Z,2.30
2022-08-31T00:20:34.967Z,2.33
2022-08-31T00:23:03.570Z,2.93
2022-08-31T00:25:32.270Z,2.70
2022-08-31T00:28:00.381Z,2.60
2022-08-31T00:30:28.476Z,2.23
2022-08-31T00:32:58.426Z,2.43
2022-08-31T00:35:26.894Z,2.60
2022-08-31T00:37:55.019Z,2.30
2022-08-31T00:40:27.404Z,2.83
2022-08-31T00:42:56.463Z,2.50
2022-08-31T00:45:25.287Z,2.63
2022-08-31T00:47:54.369Z,2.87
2022-08-31T00:50:25.514Z,2.53
2022-08-31T00:52:57.830Z,3.03
2022-08-31T00:55:31.092Z,2.80
2022-08-31T00:58:02.477Z,2.70
2022-08-31T01:00:31.755Z,2.77
2022-08-31T01:03:03.057Z,2.63
2022-08-31T01:05:32.716Z,2.80
2022-08-31T01:08:01.712Z,2.70
2022-08-31T01:10:33.254Z,2.50
2022-08-31T01:13:01.692Z,2.50
2022-08-31T01:15:32.062Z,2.37
2022-08-31T01:18:04.783Z,2.80
2022-08-31T01:20:48.989Z,2.43
2022-08-31T01:23:23.260Z,2.50
2022-08-31T01:25:52.978Z,2.73
2022-08-31T01:28:21.113Z,2.80
2022-08-31T01:31:00.766Z,2.90
2022-08-31T01:33:30.296Z,2.73
2022-08-31T01:35:59.319Z,2.53
2022-08-31T01:38:30.393Z,2.73
2022-08-31T01:41:01.932Z,2.70
2022-08-31T01:43:33.929Z,2.90
2022-08-31T01:46:02.642Z,2.53
2022-08-31T01:48:33.099Z,2.70
2022-08-31T01:51:02.904Z,2.60
2022-08-31T01:53:33.390Z,2.57
2022-08-31T01:56:01.411Z,2.50
2022-08-31T01:58:29.508Z,2.30
2022-08-31T02:00:57.674Z,2.97
2022-08-31T02:03:25.642Z,2.80
2022-08-31T02:08:20.584Z,2.70
2022-08-31T02:10:50.727Z,2.37
2022-08-31T02:13:18.864Z,2.50
2022-08-31T02:15:47.128Z,2.60
2022-08-31T02:18:15.111Z,2.60
2022-08-31T02:20:43.201Z,2.50
2022-08-31T02:23:11.519Z,2.70
2022-08-31T02:25:39.542Z,2.80
2022-08-31T02:28:09.126Z,2.87
2022-08-31T02:30:37.099Z,2.50
2022-08-31T02:33:05.226Z,2.57
2022-08-31T02:35:33.291Z,2.57
2022-08-31T02:38:01.417Z,2.67
2022-08-31T02:40:30.262Z,2.43
2022-08-31T02:42:58.296Z,2.80
2022-08-31T02:45:27.945Z,2.50
2022-08-31T02:47:55.943Z,2.70
2022-08-31T02:50:24.115Z,3.00
2022-08-31T02:52:55.032Z,2.90
2022-08-31T02:55:23.155Z,2.80
2022-08-31T02:57:51.628Z,2.53
2022-08-31T03:00:21.579Z,2.87
2022-08-31T03:02:51.125Z,2.37
2022-08-31T03:05:20.755Z,2.80
2022-08-31T03:07:49.671Z,2.40
2022-08-31T03:10:21.065Z,2.80
2022-08-31T03:12:49.916Z,2.60
2022-08-31T03:15:20.127Z,3.03
2022-08-31T03:17:48.595Z,2.70
2022-08-31T03:20:20.003Z,2.63
2022-08-31T03:22:48.454Z,3.10
2022-08-31T03:25:17.805Z,2.97
2022-08-31T03:27:45.996Z,2.63
2022-08-31T03:30:17.321Z,4.07
2022-08-31T03:32:45.550Z,3.07
2022-08-31T03:35:14.848Z,2.93
2022-08-31T03:37:44.176Z,2.60
2022-08-31T03:40:13.201Z,2.90
2022-08-31T03:42:41.886Z,2.77
2022-08-31T03:45:10.757Z,2.67
2022-08-31T03:47:44.533Z,2.60
2022-08-31T03:50:13.385Z,2.43
2022-08-31T03:52:43.355Z,2.73
2022-08-31T03:55:12.845Z,2.77
2022-08-31T03:57:41.294Z,2.90
2022-08-31T04:00:11.175Z,3.30
2022-08-31T04:02:39.922Z,2.60
2022-08-31T04:05:09.941Z,2.60
2022-08-31T04:07:42.963Z,2.90
2022-08-31T04:10:13.471Z,3.10
2022-08-31T04:12:41.937Z,2.87
2022-08-31T04:15:11.386Z,2.93
2022-08-31T04:17:39.421Z,2.70
2022-08-31T04:20:08.564Z,3.20
2022-08-31T04:22:36.617Z,3.10
2022-08-31T04:25:05.463Z,3.07
2022-08-31T04:27:34.922Z,2.83
2022-08-31T04:30:03.843Z,2.73
2022-08-31T04:32:31.804Z,3.00
2022-08-31T04:34:59.823Z,2.83
2022-08-31T04:37:27.799Z,3.10
2022-08-31T04:39:56.162Z,2.83
2022-08-31T04:42:27.224Z,2.60
2022-08-31T04:44:56.921Z,3.07
2022-08-31T04:47:24.928Z,3.30
2022-08-31T04:49:53.113Z,3.20
2022-08-31T04:52:27.334Z,3.30
2022-08-31T04:54:56.589Z,3.73
2022-08-31T04:57:24.531Z,3.47
2022-08-31T04:59:52.495Z,3.47
2022-08-31T05:02:21.924Z,3.73
2022-08-31T05:04:50.053Z,3.90
2022-08-31T05:07:18.088Z,3.33
2022-08-31T05:09:46.038Z,3.60
2022-08-31T05:12:14.432Z,3.63
2022-08-31T05:14:43.202Z,3.90
2022-08-31T05:17:14.937Z,4.40
2022-08-31T05:19:44.848Z,4.77
2022-08-31T05:22:12.919Z,4.13
2022-08-31T05:24:40.969Z,4.87
2022-08-31T05:27:09.812Z,4.50
2022-08-31T05:29:37.780Z,4.20
2022-08-31T05:32:05.881Z,4.70
2022-08-31T05:34:33.927Z,4.10
2022-08-31T05:37:04.076Z,5.27
2022-08-31T05:39:33.230Z,4.70
2022-08-31T05:42:01.513Z,5.20
2022-08-31T05:44:29.770Z,5.03
2022-08-31T05:47:03.925Z,4.47
2022-08-31T05:49:32.667Z,4.80
2022-08-31T05:52:01.060Z,4.63
2022-08-31T05:54:30.647Z,4.97
2022-08-31T05:57:01.128Z,4.87
2022-08-31T05:59:29.913Z,4.77
2022-08-31T06:01:58.095Z,5.40
2022-08-31T06:04:26.640Z,5.30
2022-08-31T06:06:54.639Z,5.47
2022-08-31T06:09:22.778Z,5.17
2022-08-31T06:11:54.126Z,5.93
2022-08-31T06:14:23.850Z,4.97
2022-08-31T06:16:52.604Z,4.80
2022-08-31T06:19:20.819Z,5.00
2022-08-31T06:21:51.371Z,5.40
2022-08-31T06:24:20.099Z,5.43
2022-08-31T06:26:58.402Z,5.07
2022-08-31T06:29:31.349Z,5.03
2022-08-31T06:32:00.330Z,4.83
2022-08-31T06:34:29.228Z,5.17
2022-08-31T06:36:57.446Z,5.00
2022-08-31T06:39:25.390Z,5.00
2022-08-31T06:41:53.904Z,5.17
2022-08-31T06:44:22.700Z,5.20
2022-08-31T06:46:52.488Z,5.47
2022-08-31T06:49:20.928Z,5.07
2022-08-31T06:51:49.346Z,5.03
2022-08-31T06:54:29.487Z,5.23
2022-08-31T06:56:58.580Z,5.63
2022-08-31T06:59:29.214Z,5.80
2022-08-31T07:01:59.880Z,5.20
2022-08-31T07:04:28.789Z,5.83
2022-08-31T07:06:56.840Z,5.30
2022-08-31T07:09:27.483Z,5.07
2022-08-31T07:11:55.927Z,5.63
2022-08-31T07:14:25.938Z,6.23
2022-08-31T07:16:56.473Z,6.00
2022-08-31T07:19:27.139Z,5.47
2022-08-31T07:21:56.700Z,5.70
2022-08-31T07:24:27.846Z,5.20
2022-08-31T07:26:58.577Z,5.43
2022-08-31T07:29:30.335Z,6.20
2022-08-31T07:31:59.462Z,5.70
2022-08-31T07:34:32.075Z,5.13
2022-08-31T07:37:18.990Z,5.77
2022-08-31T07:40:07.751Z,5.00
2022-08-31T07:42:38.884Z,5.13
2022-08-31T07:45:12.180Z,4.73
2022-08-31T07:47:47.070Z,5.00
2022-08-31T07:50:18.020Z,4.77
2022-08-31T07:52:48.755Z,4.87
2022-08-31T07:55:18.174Z,5.23
2022-08-31T07:57:46.758Z,4.97
2022-08-31T08:00:20.929Z,5.17
2022-08-31T08:02:53.312Z,5.03
2022-08-31T08:05:26.999Z,4.63
2022-08-31T08:08:09.421Z,4.73
2022-08-31T08:10:52.010Z,4.93
2022-08-31T08:13:23.359Z,4.73
2022-08-31T08:15:52.287Z,4.67
2022-08-31T08:18:21.251Z,4.97
2022-08-31T08:20:52.520Z,4.97
2022-08-31T08:23:28.157Z,5.90
2022-08-31T08:26:01.195Z,5.33
2022-08-31T08:28:45.682Z,5.17
2022-08-31T08:31:15.784Z,6.80
2022-08-31T08:33:44.146Z,6.40
2022-08-31T08:36:18.227Z,6.43
2022-08-31T08:38:48.436Z,7.10
2022-08-31T08:41:20.045Z,6.40
2022-08-31T08:43:57.444Z,7.37
2022-08-31T08:46:35.100Z,7.17
2022-08-31T08:49:23.528Z,7.27
2022-08-31T08:51:58.286Z,7.67
2022-08-31T08:54:31.210Z,7.37
2022-08-31T08:57:01.764Z,8.33
2022-08-31T08:59:30.667Z,8.43
2022-08-31T09:02:06.915Z,8.57
2022-08-31T09:04:59.574Z,8.17
2022-08-31T09:07:44.578Z,8.53
2022-08-31T09:10:23.967Z,8.70
2022-08-31T09:13:01.625Z,7.63
2022-08-31T09:15:49.204Z,8.13
2022-08-31T09:18:32.900Z,7.77
2022-08-31T09:21:06.801Z,7.73
2022-08-31T09:23:41.182Z,8.60
2022-08-31T09:26:10.086Z,8.90
2022-08-31T09:28:48.248Z,7.53
2022-08-31T09:31:37.323Z,8.00
2022-08-31T09:34:09.373Z,7.77
2022-08-31T09:36:41.154Z,7.60
2022-08-31T09:39:20.485Z,7.80
2022-08-31T09:41:50.568Z,7.30
2022-08-31T09:44:33.927Z,6.83
2022-08-31T09:47:05.264Z,6.73
2022-08-31T09:49:36.712Z,6.97
2022-08-31T09:52:43.107Z,6.17
2022-08-31T09:55:19.583Z,7.17
2022-08-31T09:57:54.120Z,6.10
2022-08-31T10:00:38.883Z,7.17
2022-08-31T10:03:19.005Z,6.57
2022-08-31T10:05:50.510Z,6.40
2022-08-31T10:08:33.905Z,6.90
2022-08-31T10:11:11.315Z,6.07
2022-08-31T10:13:41.803Z,6.00
2022-08-31T10:16:18.258Z,5.17
2022-08-31T10:18:56.057Z,5.33
2022-08-31T10:21:31.861Z,5.87
2022-08-31T10:24:20.408Z,4.97
2022-08-31T10:26:54.146Z,4.87
2022-08-31T10:29:39.809Z,5.43
2022-08-31T10:32:19.205Z,5.13
2022-08-31T10:35:06.851Z,5.07
2022-08-31T10:37:43.544Z,5.50
2022-08-31T10:40:16.081Z,4.57
2022-08-31T10:42:59.254Z,5.43
2022-08-31T10:45:30.492Z,6.77
2022-08-31T10:48:03.152Z,7.00
2022-08-31T10:50:53.911Z,6.50
2022-08-31T10:53:39.929Z,6.47
2022-08-31T10:56:16.180Z,7.43
2022-08-31T10:58:58.247Z,6.40
2022-08-31T11:01:43.903Z,6.53
2022-08-31T11:04:49.587Z,6.50
2022-08-31T11:07:27.255Z,6.93
2022-08-31T11:10:03.135Z,6.27
2022-08-31T11:12:42.542Z,6.57
2022-08-31T11:15:39.125Z,6.90
2022-08-31T11:18:36.352Z,7.33
2022-08-31T11:24:37.104Z,7.40
2022-08-31T11:27:12.188Z,6.87
2022-08-31T11:29:44.434Z,7.17
2022-08-31T11:32:25.439Z,6.90
2022-08-31T11:34:56.724Z,7.43
2022-08-31T11:37:56.347Z,7.23
2022-08-31T11:40:59.295Z,5.40
2022-08-31T11:43:52.380Z,5.30
2022-08-31T11:46:44.174Z,6.13
2022-08-31T11:49:51.559Z,6.47
2022-08-31T11:52:48.150Z,5.77
2022-08-31T11:55:22.903Z,3.93
2022-08-31T11:58:34.369Z,3.17
2022-08-31T12:01:26.140Z,3.47
2022-08-31T12:04:03.171Z,3.27
2022-08-31T12:07:07.482Z,3.70
2022-08-31T12:10:27.585Z,3.30
2022-08-31T12:13:25.208Z,3.40
2022-08-31T12:16:37.779Z,3.27
2022-08-31T12:19:51.088Z,3.37
2022-08-31T12:22:50.099Z,3.53
2022-08-31T12:25:25.817Z,3.30
2022-08-31T12:28:05.870Z,3.60
2022-08-31T12:30:35.302Z,3.13
2022-08-31T12:33:10.698Z,3.40
2022-08-31T12:35:38.989Z,3.27
2022-08-31T12:38:09.109Z,3.13
2022-08-31T12:40:43.970Z,3.00
2022-08-31T12:43:18.104Z,3.37
2022-08-31T12:46:14.028Z,3.17
2022-08-31T12:49:06.162Z,3.27
2022-08-31T12:51:43.701Z,3.30
2022-08-31T12:54:45.224Z,2.80
2022-08-31T12:57:30.605Z,3.23
2022-08-31T13:00:06.514Z,3.23
2022-08-31T13:02:42.025Z,3.40
2022-08-31T13:05:22.009Z,2.90
2022-08-31T13:07:50.892Z,3.10
2022-08-31T13:10:29.286Z,3.37
2022-08-31T13:13:00.091Z,3.20
2022-08-31T13:15:31.887Z,3.37
2022-08-31T13:18:03.494Z,3.17
2022-08-31T13:20:43.335Z,3.23
2022-08-31T13:23:14.632Z,3.23
2022-08-31T13:25:48.435Z,3.00
2022-08-31T13:28:29.961Z,2.70
2022-08-31T13:31:03.255Z,2.97
2022-08-31T13:33:35.298Z,3.20
2022-08-31T13:36:09.767Z,3.10
2022-08-31T13:38:47.636Z,2.63
2022-08-31T13:41:23.837Z,3.70
2022-08-31T13:44:02.515Z,2.97
2022-08-31T13:46:43.021Z,2.90
2022-08-31T13:49:35.568Z,3.10
2022-08-31T13:52:05.304Z,2.90
2022-08-31T13:54:35.762Z,2.80
2022-08-31T13:57:20.555Z,2.50
2022-08-31T13:59:49.810Z,2.60
2022-08-31T14:02:37.357Z,2.73
2022-08-31T14:05:12.825Z,2.60
2022-08-31T14:08:02.417Z,2.90
2022-08-31T14:10:36.276Z,2.70
2022-08-31T14:13:10.110Z,2.33
2022-08-31T14:15:46.000Z,2.40
2022-08-31T14:18:25.027Z,2.30
2022-08-31T14:21:23.437Z,2.47
2022-08-31T14:24:01.376Z,2.97
2022-08-31T14:26:33.558Z,2.60
2022-08-31T14:29:10.181Z,2.70
2022-08-31T14:31:43.763Z,3.03
2022-08-31T14:34:27.181Z,2.93
2022-08-31T14:37:02.150Z,2.80
2022-08-31T14:39:32.056Z,2.83
2022-08-31T14:42:02.854Z,2.43
2022-08-31T14:44:34.443Z,3.20
2022-08-31T14:47:02.658Z,2.90
2022-08-31T14:49:36.016Z,3.33
2022-08-31T14:52:06.572Z,2.80
2022-08-31T14:54:37.585Z,2.67
2022-08-31T14:57:09.574Z,2.50
2022-08-31T14:59:39.653Z,2.70
2022-08-31T15:02:09.966Z,2.47
2022-08-31T15:04:42.823Z,2.60
2022-08-31T15:07:16.957Z,2.60
2022-08-31T15:09:46.823Z,3.03
2022-08-31T15:12:16.314Z,2.83
2022-08-31T15:14:47.035Z,2.73
2022-08-31T15:17:19.162Z,2.60
2022-08-31T15:19:50.505Z,2.37
2022-08-31T15:22:20.310Z,2.70
2022-08-31T15:24:49.570Z,2.60
2022-08-31T15:27:18.095Z,2.60
2022-08-31T15:29:49.423Z,2.97
2022-08-31T15:32:18.546Z,3.00
2022-08-31T15:34:57.449Z,2.67
2022-08-31T15:37:31.850Z,2.60
2022-08-31T15:40:02.081Z,3.00
2022-08-31T15:42:36.700Z,3.10
2022-08-31T15:45:05.828Z,2.83
2022-08-31T15:47:55.923Z,3.00
2022-08-31T15:50:27.038Z,2.80
2022-08-31T15:53:09.027Z,2.60
2022-08-31T15:55:40.683Z,2.50
2022-08-31T15:58:09.870Z,2.63
2022-08-31T16:00:41.616Z,2.87
2022-08-31T16:03:10.133Z,3.07
2022-08-31T16:05:39.871Z,2.87
2022-08-31T16:08:11.556Z,3.00
2022-08-31T16:10:43.865Z,2.67
2022-08-31T16:13:12.560Z,2.83
2022-08-31T16:15:41.089Z,2.63
2022-08-31T16:18:09.780Z,2.67
2022-08-31T16:20:39.157Z,3.00
2022-08-31T16:23:07.540Z,2.50
2022-08-31T16:25:48.526Z,2.57
2022-08-31T16:28:18.253Z,2.70
2022-08-31T16:30:46.660Z,2.60
2022-08-31T16:33:14.616Z,2.30
2022-08-31T16:35:44.494Z,2.50
2022-08-31T16:38:12.685Z,2.57
2022-08-31T16:40:42.639Z,2.90
2022-08-31T16:43:11.138Z,2.63
2022-08-31T16:45:39.601Z,3.50
2022-08-31T16:48:25.183Z,3.03
2022-08-31T16:50:55.738Z,2.67
2022-08-31T16:53:23.835Z,2.90
2022-08-31T16:55:53.551Z,2.40
2022-08-31T16:58:50.141Z,2.57
2022-08-31T17:01:15.843Z,3.13
2022-08-31T17:03:52.106Z,3.00
2022-08-31T17:06:23.685Z,3.00
2022-08-31T17:08:58.372Z,2.70
2022-08-31T17:11:32.747Z,2.70
2022-08-31T17:14:10.282Z,2.80
2022-08-31T17:16:40.384Z,2.90
2022-08-31T17:19:12.882Z,2.90
2022-08-31T17:21:49.536Z,2.70
2022-08-31T17:24:21.815Z,3.17
2022-08-31T17:26:52.452Z,2.60
2022-08-31T17:29:22.374Z,3.50
2022-08-31T17:31:53.190Z,3.80
2022-08-31T17:34:24.482Z,3.53
2022-08-31T17:36:52.977Z,3.10
2022-08-31T17:39:22.252Z,3.07
2022-08-31T17:41:52.311Z,3.40
2022-08-31T17:44:26.266Z,3.00
2022-08-31T17:46:54.409Z,3.47
2022-08-31T17:49:24.387Z,3.00
2022-08-31T17:51:53.788Z,3.30
2022-08-31T17:54:23.617Z,3.63
2022-08-31T17:56:55.929Z,3.70
2022-08-31T17:59:26.693Z,3.07
2022-08-31T18:01:56.637Z,3.47
2022-08-31T18:04:26.243Z,3.50
2022-08-31T18:06:55.752Z,3.47
2022-08-31T18:09:29.566Z,3.23
2022-08-31T18:11:59.732Z,3.40
2022-08-31T18:14:30.003Z,3.47
2022-08-31T18:16:59.632Z,3.70
2022-08-31T18:19:32.482Z,3.67
2022-08-31T18:22:01.725Z,3.77
2022-08-31T18:24:34.173Z,3.90
2022-08-31T18:27:04.300Z,3.97
2022-08-31T18:29:33.889Z,3.87
2022-08-31T18:32:04.174Z,3.70
2022-08-31T18:34:34.546Z,3.73
2022-08-31T18:37:02.635Z,3.70
2022-08-31T18:39:51.139Z,3.70
2022-08-31T18:42:39.084Z,4.00
2022-08-31T18:45:19.094Z,4.20
2022-08-31T18:48:20.698Z,3.40
2022-08-31T18:50:44.325Z,4.03
2022-08-31T18:53:15.563Z,3.60
2022-08-31T18:56:06.258Z,3.83
2022-08-31T18:58:37.233Z,3.60
2022-08-31T19:01:10.370Z,3.67
2022-08-31T19:03:39.476Z,4.13
2022-08-31T19:06:08.239Z,4.00
2022-08-31T19:08:36.440Z,3.70
2022-08-31T19:11:08.260Z,3.80
2022-08-31T19:13:38.683Z,3.63
2022-08-31T19:16:15.568Z,3.60
2022-08-31T19:18:45.943Z,3.53
2022-08-31T19:21:17.085Z,3.53
2022-08-31T19:23:45.990Z,3.67
2022-08-31T19:26:20.332Z,3.73
2022-08-31T19:28:50.233Z,3.77
2022-08-31T19:31:20.948Z,4.17
2022-08-31T19:33:49.437Z,3.40
2022-08-31T19:36:18.503Z,3.77
2022-08-31T19:38:47.583Z,3.90
2022-08-31T19:41:17.513Z,3.87
2022-08-31T19:43:53.675Z,3.50
2022-08-31T19:46:27.097Z,3.83
2022-08-31T19:48:59.153Z,4.07
2022-08-31T19:51:29.121Z,3.87
2022-08-31T19:53:59.172Z,3.60
2022-08-31T19:56:31.148Z,3.70
2022-08-31T19:59:00.613Z,3.90
2022-08-31T20:01:34.114Z,3.57
2022-08-31T20:04:04.133Z,3.90
2022-08-31T20:06:32.590Z,3.97
2022-08-31T20:09:01.076Z,3.67
2022-08-31T20:11:31.430Z,3.80
2022-08-31T20:14:00.883Z,3.83
2022-08-31T20:16:34.417Z,3.37
2022-08-31T20:19:04.802Z,3.63
2022-08-31T20:24:05.013Z,3.70
2022-08-31T20:26:38.251Z,3.80
2022-08-31T20:29:18.046Z,3.23
2022-08-31T20:31:49.602Z,3.30
2022-08-31T20:34:19.370Z,2.97
2022-08-31T20:36:52.347Z,3.03
2022-08-31T20:39:27.785Z,2.73
2022-08-31T20:41:58.835Z,3.03
2022-08-31T20:44:29.311Z,2.70
2022-08-31T20:47:18.055Z,2.70
2022-08-31T20:49:51.099Z,2.70
2022-08-31T20:52:19.120Z,2.27
2022-08-31T20:54:52.059Z,2.47
2022-08-31T20:57:27.333Z,1.93
2022-08-31T20:59:55.361Z,2.43
2022-08-31T21:02:23.560Z,2.20
2022-08-31T21:04:51.639Z,2.40
2022-08-31T21:07:23.688Z,2.10
2022-08-31T21:09:52.987Z,2.30
2022-08-31T21:12:21.021Z,2.43
2022-08-31T21:14:49.513Z,2.20
2022-08-31T21:17:17.977Z,2.10
2022-08-31T21:19:46.183Z,2.40
2022-08-31T21:22:17.442Z,2.30
2022-08-31T21:24:46.486Z,2.20
2022-08-31T21:27:18.061Z,1.83
2022-08-31T21:29:47.084Z,2.33
2022-08-31T21:32:16.067Z,1.87
2022-08-31T21:34:44.194Z,1.93
2022-08-31T21:37:12.413Z,1.90
2022-08-31T21:39:41.580Z,1.80
2022-08-31T21:42:09.549Z,1.70
2022-08-31T21:44:39.600Z,1.90
2022-08-31T21:47:09.837Z,2.00
2022-08-31T21:49:37.834Z,1.90
2022-08-31T21:52:05.810Z,1.90
2022-08-31T21:54:33.807Z,1.67
2022-08-31T21:57:03.574Z,1.97
2022-08-31T21:59:35.199Z,1.90
2022-08-31T22:02:09.234Z,1.70
2022-08-31T22:04:41.140Z,1.60
2022-08-31T22:07:09.955Z,1.60
2022-08-31T22:09:38.505Z,1.70
2022-08-31T22:12:08.241Z,1.40
2022-08-31T22:14:39.090Z,1.37
2022-08-31T22:17:09.306Z,1.50
2022-08-31T22:19:39.248Z,1.50
2022-08-31T22:22:12.015Z,1.67
2022-08-31T22:24:41.246Z,1.80
2022-08-31T22:27:12.288Z,1.67
2022-08-31T22:29:41.018Z,1.87
2022-08-31T22:32:12.957Z,1.60
2022-08-31T22:34:42.350Z,1.53
2022-08-31T22:37:11.279Z,1.43
2022-08-31T22:39:42.406Z,1.77
2022-08-31T22:42:11.844Z,1.73
2022-08-31T22:44:40.508Z,1.50
2022-08-31T22:47:09.933Z,1.83
2022-08-31T22:49:38.026Z,1.50
2022-08-31T22:52:07.275Z,1.60
2022-08-31T22:54:36.521Z,1.37
2022-08-31T22:57:04.881Z,1.50
2022-08-31T22:59:32.923Z,1.80
2022-08-31T23:02:03.730Z,1.60
2022-08-31T23:04:35.274Z,1.50
2022-08-31T23:07:04.306Z,1.87
2022-08-31T23:09:34.171Z,1.90
2022-08-31T23:12:04.548Z,2.37
2022-08-31T23:14:33.514Z,1.63
2022-08-31T23:17:04.021Z,1.70
2022-08-31T23:19:36.984Z,1.63
2022-08-31T23:22:07.528Z,1.60
2022-08-31T23:24:39.083Z,1.70
2022-08-31T23:27:10.350Z,1.70
2022-08-31T23:29:40.960Z,1.57
2022-08-31T23:32:13.326Z,1.90
2022-08-31T23:34:43.044Z,1.67
2022-08-31T23:37:11.988Z,1.43
2022-08-31T23:39:45.859Z,1.57
2022-08-31T23:42:16.092Z,1.50
2022-08-31T23:44:46.438Z,1.70
2022-08-31T23:47:17.284Z,1.40
2022-08-31T23:49:51.035Z,1.50
2022-08-31T23:52:21.390Z,1.30
2022-08-31T23:54:52.164Z,1.70
2022-08-31T23:57:31.246Z,1.40
